SBOSBO BCN / LEBL
Speedbird OnlineSpeedbird Online BCN / LEBL

Barcelona International Airport
00:23 19.8°C

Location Barcelona, Spain
Latitude: 41.2971
Longitude: 2.07846
Local Time 00:23 on 30 May 2024
UTC +2 hours (Europe/Madrid)
Currency £1 equals EUR 1.18
METAR LEBL 292200Z 22004KT CAVOK 19/18 Q1015 NOSIG
TAF TAF LEBL 291700Z 2918/3018 21012KT 9999 FEW020 TX25/3013Z TN17/3006Z BECMG 2921/2923 32004KT PROB30 TEMPO 2921/3003 3000 BR BKN004 BECMG 3006/3009 21010KT BECMG 3015/3018 09008KT
Weather As Of 30 May 2024 00:23
Description Clear sky
Wind 7 km/h from South-West (220°)
Cloud Cover 0%
Precipitation Rain: none, Snow: none
Sunrise 06:21
Sunset 21:16
NOTAM 49 active NOTAM
Rotations During the last 90 days there were
661 flights from LHR
55 flights from LCY
646 flights to LHR
53 flights to LCY
Lounges Joan Miro Lounge , Terminal 1
Colomer Lounge, Terminal 1
Pau Casals Lounge, Terminal 1
Web Airport Website | Wikipedia
Codes IATA: BCN
ICAO: LEBL
Altitude 4 Meter / 12 Feet
Distance 1,144 KM / 711 Miles
from London.
Runways
RunwayLength (m)Surface
022528Asphalt
06L3352Asphalt
06R2660Asphalt
202528Asphalt
24L2660Asphalt
24R3352Asphalt
Radio
TypeDescriptionFrequency
APPAPP119.1
ATISATIS118.65
CLDCLNC DEL121.8
GNDGND121.65
TWRTWR118.1
Live ATC



Support Speedbird Online

© 2017-2024 Speedbird Online